Iraola, Argentina
Current Conditions -  °F | °C
As of 3:00 PM on Tuesday 21 Oct 2014 (Local Time) from SAZM Reporting Station
Clear Clear  
Wind Chill: 79°   Ceiling: Unl
Heat Index: 79°   Visibility: 6mi
Dew Point: 55°   Wind: 21mph
Humidity: 44%   Direction: 320°NW
Pressure: 29.91"   Gusts: NA
Location:  37.25°S, 58.92°W
Report Text: SAZM 211800Z 32018KT CAVOK 26/13 Q1013
Loading
Personal Weather Stations






























Interactive Weather Map
Tropical Storm Tracking
New forecast layout! Learn more

10-Day Weather Forecast

Advertisements
Track Severe Weather on mobile